Terminal Aerodrome Forecast
Issued by NWS Blacksburg, VA

Home | Current Version | Previous Version | Text Only | Print | Product List | Glossary On
Versions: 1 2 3 4 5 6 7 8 9 10 11 12
000
FTUS41 KRNK 262330
TAFROA
TAF
KROA 262330Z 2700/2724 29005KT P6SM SCT070
      TEMPO 2702/2706 BKN070
     FM271200 VRB03KT P6SM BKN110
     FM271500 29010G18KT P6SM BKN080=

USA.gov is the U.S. government's official web portal to all federal, state and local government web resources and services.